createdAt,value
2022-08-16T00:04:40.242Z,89.60
2022-08-16T00:07:07.164Z,89.70
2022-08-16T00:09:35.809Z,90.20
2022-08-16T00:12:03.159Z,75.30
2022-08-16T00:14:32.916Z,89.80
2022-08-16T00:17:12.311Z,89.70
2022-08-16T00:22:13.659Z,90.20
2022-08-16T00:24:44.817Z,77.40
2022-08-16T00:27:14.093Z,90.40
2022-08-16T00:29:41.341Z,90.10
2022-08-16T00:32:09.018Z,76.80
2022-08-16T00:34:43.335Z,90.50
2022-08-16T00:37:24.341Z,90.00
2022-08-16T00:39:57.341Z,86.50
2022-08-16T00:42:29.658Z,90.40
2022-08-16T00:45:08.124Z,85.90
2022-08-16T00:47:38.992Z,76.50
2022-08-16T00:50:08.159Z,90.00
2022-08-16T00:55:17.880Z,90.00
2022-08-16T01:00:31.735Z,90.40
2022-08-16T01:03:01.584Z,90.10
2022-08-16T01:07:58.510Z,84.30
2022-08-16T01:10:32.367Z,90.30
2022-08-16T01:13:15.262Z,77.90
2022-08-16T01:15:52.574Z,76.50
2022-08-16T01:18:39.963Z,84.30
2022-08-16T01:21:33.249Z,90.30
2022-08-16T01:24:52.688Z,89.70
2022-08-16T01:27:15.033Z,90.00
2022-08-16T01:29:58.053Z,76.70
2022-08-16T01:32:33.708Z,90.00
2022-08-16T01:37:35.895Z,90.80
2022-08-16T01:40:07.332Z,90.40
2022-08-16T01:42:35.208Z,90.40
2022-08-16T01:45:02.069Z,90.70
2022-08-16T01:47:29.986Z,90.70
2022-08-16T01:50:42.084Z,90.90
2022-08-16T01:52:47.979Z,90.50
2022-08-16T01:55:24.886Z,79.70
2022-08-16T02:00:29.163Z,90.50
2022-08-16T02:02:58.672Z,90.70
2022-08-16T02:05:25.641Z,91.10
2022-08-16T02:07:58.705Z,91.20
2022-08-16T02:10:25.869Z,89.40
2022-08-16T02:13:00.017Z,90.90
2022-08-16T02:15:29.697Z,90.70
2022-08-16T02:18:01.138Z,78.80
2022-08-16T02:20:31.377Z,91.00
2022-08-16T02:22:59.669Z,91.30
2022-08-16T02:25:51.144Z,91.10
2022-08-16T02:28:19.327Z,91.00
2022-08-16T02:30:50.944Z,91.10
2022-08-16T02:33:19.938Z,91.10
2022-08-16T02:35:58.182Z,91.80
2022-08-16T02:38:28.859Z,89.80
2022-08-16T02:41:00.762Z,78.70
2022-08-16T02:43:33.003Z,91.90
2022-08-16T02:46:07.717Z,91.90
2022-08-16T02:48:38.421Z,91.80
2022-08-16T02:51:11.373Z,90.60
2022-08-16T02:53:43.809Z,80.50
2022-08-16T02:56:15.102Z,91.60
2022-08-16T02:58:44.221Z,91.60
2022-08-16T03:01:24.147Z,91.60
2022-08-16T03:04:41.470Z,80.90
2022-08-16T03:06:56.638Z,91.00
2022-08-16T03:12:03.880Z,92.40
2022-08-16T03:14:32.089Z,81.10
2022-08-16T03:17:00.772Z,92.40
2022-08-16T03:19:48.421Z,92.60
2022-08-16T03:22:28.844Z,92.20
2022-08-16T03:25:01.930Z,92.80
2022-08-16T03:27:32.779Z,92.60
2022-08-16T03:30:15.974Z,92.50
2022-08-16T03:32:51.971Z,81.60
2022-08-16T03:35:24.173Z,81.40
2022-08-16T03:38:03.887Z,92.70
2022-08-16T03:40:40.181Z,92.50
2022-08-16T03:43:19.651Z,81.60
2022-08-16T03:45:53.383Z,92.80
2022-08-16T03:48:36.827Z,92.20
2022-08-16T03:51:16.873Z,81.50
2022-08-16T03:54:01.169Z,92.40
2022-08-16T03:58:58.944Z,92.60
2022-08-16T04:03:57.739Z,90.60
2022-08-16T04:08:53.849Z,92.40
2022-08-16T04:11:23.643Z,88.60
2022-08-16T04:13:59.115Z,90.20
2022-08-16T04:22:13.881Z,86.10
2022-08-16T04:24:55.333Z,90.60
2022-08-16T04:27:29.056Z,92.30
2022-08-16T04:30:02.960Z,85.20
2022-08-16T04:32:32.368Z,87.30
2022-08-16T04:35:03.464Z,88.70
2022-08-16T04:37:33.382Z,90.10
2022-08-16T04:40:20.670Z,81.20
2022-08-16T04:42:50.437Z,92.50
2022-08-16T04:45:18.030Z,92.00
2022-08-16T04:48:05.997Z,92.50
2022-08-16T04:50:43.469Z,92.50
2022-08-16T04:55:44.579Z,87.50
2022-08-16T05:01:01.707Z,91.80
2022-08-16T05:06:04.801Z,89.80
2022-08-16T05:08:34.174Z,92.30
2022-08-16T05:11:14.148Z,80.70
2022-08-16T05:13:44.241Z,91.60
2022-08-16T05:16:21.543Z,80.60
2022-08-16T05:18:54.030Z,91.60
2022-08-16T05:21:26.975Z,91.50
2022-08-16T05:26:32.558Z,83.80
2022-08-16T05:29:03.531Z,91.30
2022-08-16T05:31:31.581Z,91.20
2022-08-16T05:34:03.054Z,79.40
2022-08-16T05:36:33.851Z,91.20
2022-08-16T05:39:03.235Z,81.90
2022-08-16T05:41:30.665Z,90.70
2022-08-16T05:46:43.912Z,90.70
2022-08-16T05:49:22.369Z,90.60
2022-08-16T05:51:51.389Z,90.40
2022-08-16T05:56:57.249Z,79.10
2022-08-16T05:59:26.824Z,80.40
2022-08-16T06:01:54.813Z,91.10
2022-08-16T06:04:36.264Z,90.70
2022-08-16T06:07:24.321Z,91.30
2022-08-16T06:09:59.909Z,90.80
2022-08-16T06:12:29.487Z,91.10
2022-08-16T06:15:07.843Z,78.40
2022-08-16T06:17:43.268Z,79.50
2022-08-16T06:20:24.387Z,83.60
2022-08-16T06:22:58.988Z,77.60
2022-08-16T06:25:39.632Z,90.70
2022-08-16T06:28:10.176Z,83.40
2022-08-16T06:30:45.395Z,90.60
2022-08-16T06:33:22.071Z,90.50
2022-08-16T06:35:59.398Z,90.00
2022-08-16T06:38:33.908Z,89.70
2022-08-16T06:41:13.640Z,75.70
2022-08-16T06:46:31.403Z,88.60
2022-08-16T06:49:05.367Z,75.40
2022-08-16T06:54:18.154Z,88.10
2022-08-16T06:56:45.709Z,79.80
2022-08-16T06:59:14.403Z,87.40
2022-08-16T07:01:54.135Z,86.50
2022-08-16T07:09:41.715Z,84.50
2022-08-16T07:12:09.439Z,84.80
2022-08-16T07:14:40.950Z,83.90
2022-08-16T07:22:43.241Z,84.20
2022-08-16T07:25:23.925Z,82.70
2022-08-16T07:27:51.710Z,80.90
2022-08-16T07:30:38.985Z,73.10
2022-08-16T07:33:15.845Z,65.70
2022-08-16T07:35:49.855Z,66.20
2022-08-16T07:41:00.237Z,78.30
2022-08-16T07:43:29.771Z,78.30
2022-08-16T07:48:29.986Z,76.00
2022-08-16T07:50:59.257Z,76.60
2022-08-16T07:53:31.480Z,62.50
2022-08-16T07:56:00.294Z,63.50
2022-08-16T07:58:36.296Z,73.50
2022-08-16T08:03:51.637Z,61.80
2022-08-16T08:06:24.948Z,73.40
2022-08-16T08:08:56.976Z,72.30
2022-08-16T08:11:25.109Z,74.10
2022-08-16T08:14:02.975Z,73.20
2022-08-16T08:16:32.785Z,58.40
2022-08-16T08:19:02.573Z,71.90
2022-08-16T08:21:59.836Z,70.30
2022-08-16T08:24:31.968Z,57.10
2022-08-16T08:27:02.319Z,65.50
2022-08-16T08:29:37.193Z,70.10
2022-08-16T08:32:58.073Z,66.40
2022-08-16T08:35:03.123Z,68.00
2022-08-16T08:37:55.233Z,58.70
2022-08-16T08:40:19.180Z,65.70
2022-08-16T08:42:52.118Z,55.30
2022-08-16T08:45:47.343Z,66.70
2022-08-16T08:48:33.472Z,67.00
2022-08-16T08:50:59.267Z,66.70
2022-08-16T08:53:30.568Z,67.30
2022-08-16T08:55:59.037Z,66.80
2022-08-16T08:58:34.356Z,53.60
2022-08-16T09:01:31.388Z,64.20
2022-08-16T09:04:00.173Z,65.40
2022-08-16T09:06:27.031Z,65.90
2022-08-16T09:08:54.035Z,63.80
2022-08-16T09:11:40.858Z,50.70
2022-08-16T09:14:23.606Z,63.20
2022-08-16T09:17:01.423Z,62.50
2022-08-16T09:19:34.328Z,50.30
2022-08-16T09:22:02.064Z,49.20
2022-08-16T09:24:51.802Z,48.30
2022-08-16T09:27:16.494Z,46.60
2022-08-16T09:29:45.784Z,46.90
2022-08-16T09:32:28.704Z,46.50
2022-08-16T09:34:58.272Z,45.40
2022-08-16T09:37:29.526Z,46.00
2022-08-16T09:40:00.813Z,45.70
2022-08-16T09:42:29.127Z,58.30
2022-08-16T09:45:11.952Z,44.80
2022-08-16T09:47:57.399Z,44.30
2022-08-16T09:50:36.848Z,44.60
2022-08-16T09:53:08.481Z,43.60
2022-08-16T09:55:50.234Z,44.00
2022-08-16T09:58:40.755Z,43.90
2022-08-16T10:01:08.390Z,43.50
2022-08-16T10:03:35.563Z,43.00
2022-08-16T10:06:02.507Z,43.20
2022-08-16T10:08:29.398Z,41.50
2022-08-16T10:11:14.711Z,53.90
2022-08-16T10:13:50.722Z,40.40
2022-08-16T10:16:17.404Z,41.70
2022-08-16T10:19:01.732Z,56.80
2022-08-16T10:21:33.681Z,42.30
2022-08-16T10:24:02.109Z,41.00
2022-08-16T10:27:00.651Z,53.50
2022-08-16T10:29:19.931Z,40.90
2022-08-16T10:31:53.309Z,40.80
2022-08-16T10:34:31.773Z,53.90
2022-08-16T10:37:00.767Z,54.80
2022-08-16T10:39:40.895Z,55.90
2022-08-16T10:42:10.684Z,41.70
2022-08-16T10:44:41.008Z,41.10
2022-08-16T10:47:09.940Z,52.70
2022-08-16T10:49:39.168Z,40.10
2022-08-16T10:52:19.141Z,40.00
2022-08-16T10:57:34.950Z,40.10
2022-08-16T11:00:06.781Z,40.50
2022-08-16T11:02:57.652Z,52.40
2022-08-16T11:05:27.235Z,51.70
2022-08-16T11:07:54.089Z,41.20
2022-08-16T11:17:02.007Z,41.50
2022-08-16T11:19:04.251Z,54.50
2022-08-16T11:21:33.644Z,56.20
2022-08-16T11:24:02.045Z,54.40
2022-08-16T11:26:29.726Z,42.90
2022-08-16T11:29:14.325Z,56.80
2022-08-16T11:31:45.608Z,44.00
2022-08-16T11:34:15.897Z,57.40
2022-08-16T11:36:59.309Z,45.00
2022-08-16T11:39:29.657Z,44.70
2022-08-16T11:41:57.820Z,57.90
2022-08-16T11:44:52.938Z,44.50
2022-08-16T11:47:12.575Z,44.10
2022-08-16T11:49:39.288Z,43.50
2022-08-16T11:52:06.057Z,43.20
2022-08-16T11:54:33.200Z,57.30
2022-08-16T11:57:04.013Z,56.60
2022-08-16T11:59:39.573Z,55.60
2022-08-16T12:02:30.913Z,41.00
2022-08-16T12:04:55.797Z,52.80
2022-08-16T12:07:23.928Z,40.00
2022-08-16T12:09:53.287Z,39.10
2022-08-16T12:12:23.617Z,50.40
2022-08-16T12:14:59.450Z,37.60
2022-08-16T12:17:31.737Z,37.50
2022-08-16T12:20:00.557Z,37.40
2022-08-16T12:22:27.859Z,38.50
2022-08-16T12:24:54.634Z,38.60
2022-08-16T12:27:23.931Z,38.70
2022-08-16T12:29:54.880Z,39.10
2022-08-16T12:32:38.257Z,39.20
2022-08-16T12:35:12.527Z,38.80
2022-08-16T12:37:41.621Z,39.10
2022-08-16T12:40:19.808Z,53.10
2022-08-16T12:42:54.174Z,39.40
2022-08-16T12:45:23.149Z,52.60
2022-08-16T12:48:32.550Z,42.30
2022-08-16T12:50:57.090Z,41.90
2022-08-16T12:53:24.623Z,53.90
2022-08-16T12:55:52.964Z,42.90
2022-08-16T12:58:48.289Z,43.60
2022-08-16T13:01:09.486Z,43.80
2022-08-16T13:03:40.882Z,56.70
2022-08-16T13:06:08.210Z,58.00
2022-08-16T13:08:35.080Z,44.80
2022-08-16T13:11:04.227Z,44.80
2022-08-16T13:13:33.927Z,57.50
2022-08-16T13:16:10.712Z,56.60
2022-08-16T13:18:42.857Z,57.20
2022-08-16T13:21:10.673Z,44.50
2022-08-16T13:23:43.421Z,44.20
2022-08-16T13:26:12.725Z,55.30
2022-08-16T13:28:47.753Z,44.10
2022-08-16T13:31:15.902Z,43.40
2022-08-16T13:33:44.427Z,43.30
2022-08-16T13:36:21.306Z,43.30
2022-08-16T13:38:59.901Z,42.80
2022-08-16T13:41:30.243Z,42.20
2022-08-16T13:44:00.437Z,42.30
2022-08-16T13:46:32.252Z,40.60
2022-08-16T13:48:59.456Z,50.80
2022-08-16T13:51:29.285Z,38.40
2022-08-16T13:54:03.786Z,50.90
2022-08-16T13:56:37.238Z,38.60
2022-08-16T13:59:19.396Z,38.90
2022-08-16T14:01:55.352Z,37.90
2022-08-16T14:04:26.372Z,37.80
2022-08-16T14:06:55.278Z,50.60
2022-08-16T14:09:23.570Z,38.10
2022-08-16T14:11:53.339Z,38.00
2022-08-16T14:14:21.694Z,37.70
2022-08-16T14:16:57.495Z,38.70
2022-08-16T14:19:24.217Z,38.90
2022-08-16T14:22:14.862Z,38.70
2022-08-16T14:24:48.544Z,39.50
2022-08-16T14:27:17.703Z,39.70
2022-08-16T14:29:45.600Z,45.70
2022-08-16T14:32:27.259Z,40.20
2022-08-16T14:35:07.548Z,39.80
2022-08-16T14:37:35.098Z,38.20
2022-08-16T14:40:03.368Z,54.00
2022-08-16T14:44:57.478Z,42.10
2022-08-16T14:47:31.613Z,42.30
2022-08-16T14:50:01.873Z,42.90
2022-08-16T14:52:53.981Z,43.10
2022-08-16T14:55:16.258Z,54.50
2022-08-16T14:57:43.601Z,56.30
2022-08-16T15:00:12.914Z,43.30
2022-08-16T15:02:42.626Z,56.70
2022-08-16T15:05:10.640Z,56.00
2022-08-16T15:07:40.282Z,44.00
2022-08-16T15:10:21.574Z,43.90
2022-08-16T15:12:56.272Z,44.70
2022-08-16T15:15:27.825Z,57.20
2022-08-16T15:17:56.991Z,44.70
2022-08-16T15:20:26.990Z,45.00
2022-08-16T15:22:59.560Z,46.20
2022-08-16T15:25:31.715Z,58.20
2022-08-16T15:28:04.535Z,45.80
2022-08-16T15:30:58.450Z,56.50
2022-08-16T15:33:19.870Z,45.60
2022-08-16T15:35:50.549Z,46.10
2022-08-16T15:38:57.480Z,45.40
2022-08-16T15:41:05.745Z,45.70
2022-08-16T15:43:39.098Z,45.80
2022-08-16T15:46:35.164Z,57.10
2022-08-16T15:49:10.454Z,56.90
2022-08-16T15:51:39.471Z,45.90
2022-08-16T15:54:29.297Z,46.50
2022-08-16T15:56:55.072Z,59.20
2022-08-16T15:59:24.609Z,47.60
2022-08-16T16:01:55.777Z,59.90
2022-08-16T16:04:23.237Z,47.20
2022-08-16T16:06:55.273Z,58.90
2022-08-16T16:09:36.563Z,59.70
2022-08-16T16:12:34.098Z,47.50
2022-08-16T16:14:52.808Z,60.50
2022-08-16T16:17:19.507Z,47.90
2022-08-16T16:19:49.701Z,59.70
2022-08-16T16:22:20.955Z,48.20
2022-08-16T16:24:49.109Z,48.30
2022-08-16T16:27:16.898Z,61.30
2022-08-16T16:29:46.179Z,62.20
2022-08-16T16:32:17.629Z,59.90
2022-08-16T16:34:57.792Z,59.70
2022-08-16T16:37:25.388Z,48.80
2022-08-16T16:39:52.116Z,60.90
2022-08-16T16:42:29.423Z,48.80
2022-08-16T16:45:01.301Z,49.20
2022-08-16T16:47:29.987Z,48.70
2022-08-16T16:50:09.369Z,48.80
2022-08-16T16:52:44.458Z,61.30
2022-08-16T16:55:12.767Z,49.10
2022-08-16T16:57:58.355Z,48.90
2022-08-16T17:00:30.402Z,48.40
2022-08-16T17:03:05.691Z,49.30
2022-08-16T17:05:32.753Z,49.30
2022-08-16T17:08:01.801Z,61.30
2022-08-16T17:10:46.094Z,49.70
2022-08-16T17:13:15.970Z,60.50
2022-08-16T17:15:43.596Z,50.70
2022-08-16T17:19:14.478Z,50.20
2022-08-16T17:20:57.476Z,50.20
2022-08-16T17:23:57.568Z,50.90
2022-08-16T17:26:11.623Z,49.10
2022-08-16T17:29:00.206Z,50.60
2022-08-16T17:31:41.003Z,51.20
2022-08-16T17:34:28.973Z,63.60
2022-08-16T17:37:00.777Z,51.70
2022-08-16T17:39:35.367Z,52.10
2022-08-16T17:42:22.346Z,52.70
2022-08-16T17:44:52.517Z,64.80
2022-08-16T17:47:21.542Z,54.10
2022-08-16T17:49:48.275Z,54.10
2022-08-16T17:52:15.216Z,65.50
2022-08-16T17:54:41.993Z,65.80
2022-08-16T17:57:08.715Z,67.20
2022-08-16T17:59:41.524Z,67.40
2022-08-16T18:02:42.978Z,55.10
2022-08-16T18:04:56.407Z,55.90
2022-08-16T18:07:23.374Z,69.50
2022-08-16T18:09:51.489Z,67.80
2022-08-16T18:12:50.991Z,69.80
2022-08-16T18:15:12.108Z,68.40
2022-08-16T18:17:39.404Z,71.00
2022-08-16T18:20:28.101Z,70.40
2022-08-16T18:22:54.873Z,58.30
2022-08-16T18:25:21.700Z,69.50
2022-08-16T18:27:48.436Z,72.00
2022-08-16T18:30:17.551Z,72.00
2022-08-16T18:32:48.967Z,71.30
2022-08-16T18:35:17.197Z,71.40
2022-08-16T18:37:43.968Z,71.40
2022-08-16T18:40:11.996Z,72.10
2022-08-16T18:42:39.111Z,72.90
2022-08-16T18:45:06.452Z,74.20
2022-08-16T18:47:33.298Z,72.60
2022-08-16T18:50:00.440Z,74.30
2022-08-16T18:52:27.221Z,73.10
2022-08-16T18:55:02.981Z,73.10
2022-08-16T18:57:41.274Z,73.50
2022-08-16T19:00:11.396Z,73.50
2022-08-16T19:02:42.958Z,73.70
2022-08-16T19:05:27.047Z,61.90
2022-08-16T19:07:53.739Z,73.60
2022-08-16T19:10:20.907Z,74.60
2022-08-16T19:12:47.774Z,74.30
2022-08-16T19:15:19.135Z,74.30
2022-08-16T19:17:46.642Z,75.10
2022-08-16T19:20:17.941Z,75.40
2022-08-16T19:23:04.617Z,75.70
2022-08-16T19:25:47.109Z,75.70
2022-08-16T19:28:51.040Z,75.70
2022-08-16T19:31:10.603Z,75.90
2022-08-16T19:33:37.510Z,76.70
2022-08-16T19:36:05.246Z,76.30
2022-08-16T19:38:31.945Z,76.50
2022-08-16T19:40:58.692Z,77.50
2022-08-16T19:43:25.448Z,76.80
2022-08-16T19:45:53.411Z,65.10
2022-08-16T19:48:20.183Z,77.30
2022-08-16T19:50:46.919Z,72.30
2022-08-16T19:53:19.090Z,79.10
2022-08-16T19:55:47.354Z,78.40
2022-08-16T20:00:43.327Z,79.10
2022-08-16T20:03:17.441Z,79.10
2022-08-16T20:05:44.623Z,72.70
2022-08-16T20:08:12.649Z,66.40
2022-08-16T20:10:42.283Z,71.60
2022-08-16T20:13:23.401Z,80.20
2022-08-16T20:15:50.561Z,68.10
2022-08-16T20:18:24.977Z,66.30
2022-08-16T20:20:52.619Z,67.80
2022-08-16T20:23:24.601Z,80.00
2022-08-16T20:25:55.681Z,79.50
2022-08-16T20:31:11.490Z,80.50
2022-08-16T20:33:38.228Z,80.40
2022-08-16T20:38:32.048Z,81.40
2022-08-16T20:43:25.908Z,80.10
2022-08-16T20:45:52.724Z,81.10
2022-08-16T20:50:47.063Z,80.80
2022-08-16T20:53:16.506Z,81.30
2022-08-16T20:55:44.661Z,80.40
2022-08-16T20:58:11.580Z,80.40
2022-08-16T21:00:38.487Z,81.10
2022-08-16T21:03:10.778Z,80.60
2022-08-16T21:05:37.649Z,81.30
2022-08-16T21:08:27.875Z,81.20
2022-08-16T21:10:51.598Z,69.90
2022-08-16T21:15:45.680Z,81.60
2022-08-16T21:20:39.711Z,81.90
2022-08-16T21:23:08.876Z,68.80
2022-08-16T21:25:41.504Z,68.70
2022-08-16T21:28:39.271Z,82.10
2022-08-16T21:31:13.602Z,81.70
2022-08-16T21:33:40.909Z,81.90
2022-08-16T21:38:35.165Z,83.80
2022-08-16T21:41:03.925Z,69.70
2022-08-16T21:43:33.089Z,82.60
2022-08-16T21:46:04.433Z,68.50
2022-08-16T21:48:35.030Z,83.80
2022-08-16T21:51:08.079Z,70.40
2022-08-16T21:53:36.163Z,84.70
2022-08-16T21:56:05.466Z,84.00
2022-08-16T22:01:00.442Z,84.20
2022-08-16T22:03:28.133Z,84.20
2022-08-16T22:06:11.545Z,84.60
2022-08-16T22:08:49.273Z,79.20
2022-08-16T22:11:22.036Z,84.70
2022-08-16T22:13:57.139Z,86.10
2022-08-16T22:16:28.538Z,86.20
2022-08-16T22:18:55.428Z,85.70
2022-08-16T22:26:30.341Z,85.40
2022-08-16T22:29:09.339Z,75.00
2022-08-16T22:31:37.684Z,72.80
2022-08-16T22:34:05.623Z,85.50
2022-08-16T22:36:33.785Z,78.20
2022-08-16T22:39:03.897Z,85.90
2022-08-16T22:41:32.719Z,80.80
2022-08-16T22:44:01.052Z,86.80
2022-08-16T22:46:28.442Z,86.50
2022-08-16T22:48:55.219Z,86.10
2022-08-16T22:51:24.143Z,86.10
2022-08-16T22:53:50.898Z,74.40
2022-08-16T22:56:18.333Z,87.30
2022-08-16T22:58:46.124Z,86.30
2022-08-16T23:01:14.091Z,87.00
2022-08-16T23:03:41.172Z,87.30
2022-08-16T23:06:08.853Z,78.40
2022-08-16T23:08:39.272Z,73.40
2022-08-16T23:11:13.868Z,87.20
2022-08-16T23:13:49.955Z,79.00
2022-08-16T23:16:32.561Z,86.80
2022-08-16T23:19:03.310Z,86.70
2022-08-16T23:21:30.421Z,86.60
2022-08-16T23:23:57.244Z,87.50
2022-08-16T23:26:47.313Z,87.60
2022-08-16T23:29:16.051Z,85.90
2022-08-16T23:31:59.312Z,86.50
2022-08-16T23:34:28.000Z,86.70
2022-08-16T23:36:55.613Z,86.60
2022-08-16T23:39:23.475Z,86.40
2022-08-16T23:41:50.177Z,86.50
2022-08-16T23:44:55.060Z,82.60
2022-08-16T23:47:05.945Z,86.60
2022-08-16T23:50:01.110Z,86.70
2022-08-16T23:52:39.432Z,87.90
2022-08-16T23:55:07.178Z,88.00
2022-08-16T23:57:33.943Z,88.10
